Time;durP1;ratioP1;P1;durP2;ratioP2;P2;SDS_P1;SDS_P2;PMS_P1;PMS_P2;Temp;Humidity;BMP_temperature;BMP_pressure;BME280_temperature;BME280_humidity;BME280_pressure;Samples;Min_cycle;Max_cycle;Signal;HPM_P1;HPM_P2
2021/09/17 00:01:20;;;;;;;6.05;4.80;;;;;;;;;;5136863;27;20031;-70
2021/09/17 00:03:46;;;;;;;8.15;4.40;;;;;;;;;;5083360;27;20030;-70
2021/09/17 00:06:12;;;;;;;8.60;4.40;;;;;;;;;;5012632;28;20393;-75
2021/09/17 00:08:39;;;;;;;6.68;4.13;;;;;;;;;;5068856;27;20025;-70
2021/09/17 00:11:06;;;;;;;5.43;4.32;;;;;;;;;;5101225;28;20022;-71
2021/09/17 00:13:33;;;;;;;4.03;3.63;;;;;;;;;;5032583;28;20025;-69
2021/09/17 00:15:59;;;;;;;7.50;3.80;;;;;;;;;;5032253;28;20060;-70
2021/09/17 00:18:25;;;;;;;8.40;4.50;;;;;;;;;;5032318;28;20022;-69
2021/09/17 00:20:51;;;;;;;9.52;4.47;;;;;;;;;;5100839;28;20042;-69
2021/09/17 00:23:17;;;;;;;4.95;4.53;;;;;;;;;;5032334;28;20028;-68
2021/09/17 00:25:43;;;;;;;9.63;3.90;;;;;;;;;;5031994;28;20346;-68
2021/09/17 00:28:09;;;;;;;9.38;4.05;;;;;;;;;;5031825;28;20021;-68
2021/09/17 00:30:35;;;;;;;13.95;4.00;;;;;;;;;;5100552;28;20026;-68
2021/09/17 00:33:01;;;;;;;6.60;4.05;;;;;;;;;;5031848;28;20071;-68
2021/09/17 00:35:27;;;;;;;5.95;4.07;;;;;;;;;;5031044;28;20021;-70
2021/09/17 00:37:53;;;;;;;11.10;4.38;;;;;;;;;;5031810;28;20108;-69
2021/09/17 00:40:19;;;;;;;7.82;4.20;;;;;;;;;;5031860;28;20033;-70
2021/09/17 00:42:45;;;;;;;12.40;4.45;;;;;;;;;;5031605;28;20029;-68
2021/09/17 00:45:12;;;;;;;13.90;4.18;;;;;;;;;;5031636;28;20143;-68
2021/09/17 00:47:39;;;;;;;4.25;3.85;;;;;;;;;;5031872;28;20022;-70
2021/09/17 00:50:06;;;;;;;5.45;4.13;;;;;;;;;;5031577;28;20414;-70
2021/09/17 00:52:32;;;;;;;8.45;3.65;;;;;;;;;;5031868;28;20025;-70
2021/09/17 00:54:58;;;;;;;7.30;4.05;;;;;;;;;;5031755;28;20465;-70
2021/09/17 00:57:25;;;;;;;25.17;4.25;;;;;;;;;;5031808;28;20032;-70
2021/09/17 00:59:51;;;;;;;7.72;3.83;;;;;;;;;;5100030;28;20065;-70
2021/09/17 01:02:17;;;;;;;5.45;4.25;;;;;;;;;;5031706;28;20045;-71
2021/09/17 01:04:43;;;;;;;6.30;4.28;;;;;;;;;;5031592;28;20104;-70
2021/09/17 01:07:09;;;;;;;9.65;4.18;;;;;;;;;;5099046;28;20463;-70
2021/09/17 01:09:35;;;;;;;8.68;3.42;;;;;;;;;;5031448;28;20025;-71
2021/09/17 01:12:05;;;;;;;15.48;4.20;;;;;;;;;;5031324;28;20112;-70
2021/09/17 01:14:35;;;;;;;7.28;4.20;;;;;;;;;;5031494;28;20021;-70
2021/09/17 01:17:01;;;;;;;10.20;4.20;;;;;;;;;;5031420;28;20036;-70
2021/09/17 01:19:27;;;;;;;10.32;3.67;;;;;;;;;;5031126;28;20084;-70
2021/09/17 01:21:57;;;;;;;9.45;4.15;;;;;;;;;;5031094;28;20071;-70
2021/09/17 01:24:23;;;;;;;10.18;4.05;;;;;;;;;;5031112;28;20026;-70
2021/09/17 01:26:49;;;;;;;5.88;3.92;;;;;;;;;;5031432;28;20369;-70
2021/09/17 01:29:15;;;;;;;10.25;4.57;;;;;;;;;;5031246;28;20018;-70
2021/09/17 01:31:41;;;;;;;15.13;4.15;;;;;;;;;;5031507;28;20361;-70
2021/09/17 01:34:08;;;;;;;14.70;4.03;;;;;;;;;;5099106;28;20032;-70
2021/09/17 01:36:34;;;;;;;6.32;4.38;;;;;;;;;;5030945;28;20174;-68
2021/09/17 01:39:00;;;;;;;8.55;4.15;;;;;;;;;;5094948;28;20114;-69
2021/09/17 01:41:26;;;;;;;13.70;4.15;;;;;;;;;;5096026;28;20077;-70
2021/09/17 01:43:52;;;;;;;9.25;4.30;;;;;;;;;;5095592;28;20029;-70
2021/09/17 01:46:20;;;;;;;7.97;4.75;;;;;;;;;;5011027;28;20026;-70
2021/09/17 01:48:47;;;;;;;17.08;4.85;;;;;;;;;;5010897;28;20029;-69
2021/09/17 01:51:13;;;;;;;6.07;4.45;;;;;;;;;;5095652;28;20450;-69
2021/09/17 01:53:39;;;;;;;8.05;4.70;;;;;;;;;;5010596;28;20025;-69
2021/09/17 01:56:05;;;;;;;8.07;4.55;;;;;;;;;;5010615;28;20112;-69
2021/09/17 01:58:31;;;;;;;11.48;4.40;;;;;;;;;;5010811;28;20022;-68
2021/09/17 02:00:58;;;;;;;9.07;4.20;;;;;;;;;;5010691;28;20030;-68
2021/09/17 02:03:24;;;;;;;20.15;4.30;;;;;;;;;;5009996;28;20104;-68
2021/09/17 02:05:50;;;;;;;9.05;3.88;;;;;;;;;;5010064;28;20109;-68
2021/09/17 02:08:16;;;;;;;6.53;4.20;;;;;;;;;;5029934;28;20055;-69
2021/09/17 02:10:42;;;;;;;14.00;5.50;;;;;;;;;;5030283;28;20029;-69
2021/09/17 02:13:08;;;;;;;10.02;4.60;;;;;;;;;;5030455;28;20025;-68
2021/09/17 02:15:34;;;;;;;5.32;3.80;;;;;;;;;;5030363;28;20380;-68
2021/09/17 02:18:00;;;;;;;9.90;4.78;;;;;;;;;;5030199;28;20053;-68
2021/09/17 02:20:26;;;;;;;8.00;3.78;;;;;;;;;;5030044;28;20049;-70
2021/09/17 02:22:53;;;;;;;17.00;4.38;;;;;;;;;;5098251;28;20145;-69
2021/09/17 02:25:19;;;;;;;12.10;4.97;;;;;;;;;;5030069;28;20097;-69
2021/09/17 02:27:47;;;;;;;9.07;4.82;;;;;;;;;;5030305;28;20036;-69
2021/09/17 02:30:13;;;;;;;10.25;4.55;;;;;;;;;;5030229;28;20029;-70
2021/09/17 02:32:39;;;;;;;7.50;4.70;;;;;;;;;;5030344;28;20037;-70
2021/09/17 02:35:07;;;;;;;24.05;5.18;;;;;;;;;;5098417;28;20130;-69
2021/09/17 02:37:32;;;;;;;9.55;4.65;;;;;;;;;;5115731;28;20103;-68
2021/09/17 02:39:58;;;;;;;21.42;5.30;;;;;;;;;;5094119;28;20120;-69
2021/09/17 02:42:25;;;;;;;10.60;4.97;;;;;;;;;;5010516;28;20026;-70
2021/09/17 02:44:52;;;;;;;24.77;5.15;;;;;;;;;;5010406;28;20083;-69
2021/09/17 02:47:18;;;;;;;9.95;4.38;;;;;;;;;;5010475;28;20446;-70
2021/09/17 02:49:44;;;;;;;10.10;4.95;;;;;;;;;;5010041;28;20030;-69
2021/09/17 02:52:10;;;;;;;16.90;5.45;;;;;;;;;;5010357;28;20041;-68
2021/09/17 02:54:36;;;;;;;19.98;5.55;;;;;;;;;;5010089;28;20040;-69
2021/09/17 02:57:02;;;;;;;19.48;5.40;;;;;;;;;;5077448;28;20488;-69
2021/09/17 02:59:28;;;;;;;12.38;4.82;;;;;;;;;;5010235;28;20033;-69
2021/09/17 03:01:54;;;;;;;18.48;5.10;;;;;;;;;;5010234;28;20030;-69
2021/09/17 03:04:20;;;;;;;10.50;4.95;;;;;;;;;;5077758;28;20056;-70
2021/09/17 03:06:46;;;;;;;11.68;5.20;;;;;;;;;;5010239;28;20491;-69
2021/09/17 03:09:12;;;;;;;11.52;4.88;;;;;;;;;;5010118;28;20045;-70
2021/09/17 03:11:38;;;;;;;17.85;7.78;;;;;;;;;;5086657;28;20029;-69
2021/09/17 03:14:04;;;;;;;9.90;5.13;;;;;;;;;;5012375;28;20455;-70
2021/09/17 03:16:30;;;;;;;12.27;4.85;;;;;;;;;;5098620;28;20132;-70
2021/09/17 03:18:56;;;;;;;9.55;5.15;;;;;;;;;;5013133;28;20057;-69
2021/09/17 03:21:22;;;;;;;13.05;5.10;;;;;;;;;;5098373;28;20064;-69
2021/09/17 03:23:48;;;;;;;9.38;4.72;;;;;;;;;;5069443;27;20051;-70
2021/09/17 03:26:13;;;;;;;14.77;6.68;;;;;;;;;;5088876;27;20407;-69
2021/09/17 03:28:39;;;;;;;16.23;6.05;;;;;;;;;;5086188;27;20078;-70
2021/09/17 03:31:05;;;;;;;12.18;5.72;;;;;;;;;;5083737;27;20031;-70
2021/09/17 03:33:32;;;;;;;16.45;6.85;;;;;;;;;;5079823;27;20089;-70
2021/09/17 03:35:58;;;;;;;18.10;6.13;;;;;;;;;;5069603;27;20082;-70
2021/09/17 03:38:24;;;;;;;11.23;5.70;;;;;;;;;;5078454;27;20053;-69
2021/09/17 03:40:50;;;;;;;12.23;5.30;;;;;;;;;;5109070;27;20062;-69
2021/09/17 03:43:16;;;;;;;13.02;7.18;;;;;;;;;;5060874;27;20020;-70
2021/09/17 03:45:43;;;;;;;11.98;5.18;;;;;;;;;;5100516;28;20435;-70
2021/09/17 03:48:10;;;;;;;11.80;5.75;;;;;;;;;;5111929;27;20029;-69
2021/09/17 03:50:36;;;;;;;7.15;4.82;;;;;;;;;;5122732;27;20427;-70
2021/09/17 03:53:02;;;;;;;20.10;11.57;;;;;;;;;;5055382;27;20056;-70
2021/09/17 03:55:28;;;;;;;19.08;9.25;;;;;;;;;;5032702;28;20018;-69
2021/09/17 03:57:54;;;;;;;13.55;8.23;;;;;;;;;;5100990;28;20044;-70
2021/09/17 04:00:20;;;;;;;10.60;5.93;;;;;;;;;;5032557;28;20479;-70
2021/09/17 04:02:46;;;;;;;15.43;7.63;;;;;;;;;;5032548;28;20484;-69
2021/09/17 04:05:12;;;;;;;14.07;8.60;;;;;;;;;;5032689;28;20061;-69
2021/09/17 04:07:39;;;;;;;12.90;5.25;;;;;;;;;;5050935;27;20611;-70
2021/09/17 04:10:06;;;;;;;13.98;6.90;;;;;;;;;;5087300;27;20023;-73
2021/09/17 04:12:32;;;;;;;13.93;5.28;;;;;;;;;;5015108;28;20022;-69
2021/09/17 04:14:58;;;;;;;14.32;5.68;;;;;;;;;;5012544;28;20033;-69
2021/09/17 04:17:24;;;;;;;9.60;5.30;;;;;;;;;;5080525;28;20026;-69
2021/09/17 04:19:53;;;;;;;10.77;5.25;;;;;;;;;;5012307;28;20049;-69
2021/09/17 04:22:23;;;;;;;12.88;4.38;;;;;;;;;;5012310;28;20030;-68
2021/09/17 04:24:52;;;;;;;18.48;5.90;;;;;;;;;;5011878;28;20022;-68
2021/09/17 04:27:18;;;;;;;12.38;4.80;;;;;;;;;;5012591;28;20041;-70
2021/09/17 04:29:44;;;;;;;13.65;4.47;;;;;;;;;;5012545;28;20435;-70
2021/09/17 04:32:10;;;;;;;9.43;4.60;;;;;;;;;;5012570;28;20030;-69
2021/09/17 04:34:37;;;;;;;10.95;4.72;;;;;;;;;;5012523;28;20018;-69
2021/09/17 04:37:02;;;;;;;10.93;4.95;;;;;;;;;;5012289;28;20022;-69
2021/09/17 04:39:29;;;;;;;11.07;5.13;;;;;;;;;;5012160;28;20075;-68
2021/09/17 04:41:54;;;;;;;10.75;4.65;;;;;;;;;;5012139;28;20420;-69
2021/09/17 04:44:20;;;;;;;17.60;4.85;;;;;;;;;;5011720;28;20037;-69
2021/09/17 04:46:46;;;;;;;19.25;4.60;;;;;;;;;;5012048;28;20075;-69
2021/09/17 04:49:12;;;;;;;13.82;4.93;;;;;;;;;;5079817;28;20022;-68
2021/09/17 04:51:38;;;;;;;9.80;5.70;;;;;;;;;;5079824;28;20022;-70
2021/09/17 04:54:04;;;;;;;17.92;5.28;;;;;;;;;;5011848;28;20026;-69
2021/09/17 04:56:30;;;;;;;9.73;4.35;;;;;;;;;;5012073;28;20369;-69
2021/09/17 04:58:56;;;;;;;11.07;4.53;;;;;;;;;;5012224;28;20101;-69
2021/09/17 05:01:22;;;;;;;20.15;5.15;;;;;;;;;;5017348;28;20068;-68
2021/09/17 05:03:50;;;;;;;12.02;4.72;;;;;;;;;;5031376;28;20057;-69
2021/09/17 05:06:16;;;;;;;14.88;4.50;;;;;;;;;;5100145;28;20030;-69
2021/09/17 05:08:42;;;;;;;8.98;5.10;;;;;;;;;;5031443;28;20085;-69
2021/09/17 05:11:08;;;;;;;10.43;4.95;;;;;;;;;;5099822;28;20021;-69
2021/09/17 05:13:34;;;;;;;7.10;4.90;;;;;;;;;;5031160;28;20078;-69
2021/09/17 05:16:00;;;;;;;7.97;4.40;;;;;;;;;;5031328;28;20029;-68
2021/09/17 05:18:26;;;;;;;8.07;4.90;;;;;;;;;;5030061;28;20067;-70
2021/09/17 05:20:52;;;;;;;8.18;4.47;;;;;;;;;;5031221;28;20041;-69
2021/09/17 05:23:18;;;;;;;5.88;3.78;;;;;;;;;;5031475;28;20018;-68
2021/09/17 05:25:44;;;;;;;7.85;4.82;;;;;;;;;;5031371;28;20052;-69
2021/09/17 05:28:10;;;;;;;10.38;5.10;;;;;;;;;;5031402;28;20025;-68
2021/09/17 05:30:36;;;;;;;23.08;4.97;;;;;;;;;;5031411;28;20029;-70
2021/09/17 05:33:02;;;;;;;13.38;5.03;;;;;;;;;;5031532;28;20030;-68
2021/09/17 05:35:28;;;;;;;15.90;6.07;;;;;;;;;;5031588;28;20022;-70
2021/09/17 05:37:54;;;;;;;13.68;5.75;;;;;;;;;;5080068;27;20020;-69
2021/09/17 05:40:20;;;;;;;13.15;5.18;;;;;;;;;;5134704;27;20047;-69
2021/09/17 05:42:46;;;;;;;14.73;5.25;;;;;;;;;;5134893;27;20055;-69
2021/09/17 05:45:13;;;;;;;23.02;5.10;;;;;;;;;;5116635;27;20073;-70
2021/09/17 05:47:41;;;;;;;15.32;6.15;;;;;;;;;;5134953;27;20115;-69
2021/09/17 05:50:08;;;;;;;27.88;5.50;;;;;;;;;;5116317;27;20072;-71
2021/09/17 05:52:33;;;;;;;20.35;6.88;;;;;;;;;;5044016;27;20034;-70
2021/09/17 05:54:59;;;;;;;18.45;4.95;;;;;;;;;;5078811;28;20086;-70
2021/09/17 05:57:25;;;;;;;24.27;4.85;;;;;;;;;;5011148;28;20471;-70
2021/09/17 05:59:51;;;;;;;22.10;6.30;;;;;;;;;;5011031;28;20105;-70
2021/09/17 06:02:17;;;;;;;26.02;8.10;;;;;;;;;;5078695;28;20398;-70
2021/09/17 06:04:44;;;;;;;28.23;9.73;;;;;;;;;;5010865;28;20029;-70
2021/09/17 06:07:10;;;;;;;44.47;16.77;;;;;;;;;;5101588;27;20478;-69
2021/09/17 06:09:36;;;;;;;64.45;17.15;;;;;;;;;;5134712;27;20023;-72
2021/09/17 06:12:03;;;;;;;51.75;18.80;;;;;;;;;;5134343;27;20423;-72
2021/09/17 06:14:29;;;;;;;73.88;13.75;;;;;;;;;;5116104;28;20122;-73
2021/09/17 06:16:55;;;;;;;38.58;9.27;;;;;;;;;;5134825;27;20409;-72
2021/09/17 06:19:21;;;;;;;41.08;7.38;;;;;;;;;;5115798;27;20054;-72
2021/09/17 06:21:47;;;;;;;45.50;16.83;;;;;;;;;;5079157;27;20112;-71
2021/09/17 06:24:13;;;;;;;22.48;6.97;;;;;;;;;;5010992;28;20034;-72
2021/09/17 06:26:39;;;;;;;36.33;6.78;;;;;;;;;;5054321;27;20029;-70
2021/09/17 06:29:05;;;;;;;25.92;12.15;;;;;;;;;;5030320;28;20517;-70
2021/09/17 06:31:32;;;;;;;23.58;8.40;;;;;;;;;;5106757;27;20027;-73
2021/09/17 06:33:58;;;;;;;26.52;7.95;;;;;;;;;;5098091;27;20424;-71
2021/09/17 06:36:24;;;;;;;20.00;8.15;;;;;;;;;;5024774;28;20099;-70
2021/09/17 06:38:50;;;;;;;16.60;7.13;;;;;;;;;;5095432;28;20441;-73
2021/09/17 06:41:16;;;;;;;18.08;6.90;;;;;;;;;;5030327;28;20499;-77
2021/09/17 06:43:42;;;;;;;24.38;9.90;;;;;;;;;;5030220;28;20018;-69
2021/09/17 06:46:08;;;;;;;20.75;6.82;;;;;;;;;;5030071;28;20077;-72
2021/09/17 06:48:34;;;;;;;19.83;6.72;;;;;;;;;;5035995;28;20032;-71
2021/09/17 06:51:01;;;;;;;17.88;7.35;;;;;;;;;;5048071;27;20097;-72
2021/09/17 06:53:27;;;;;;;21.30;7.13;;;;;;;;;;5081397;27;20050;-72
2021/09/17 06:55:53;;;;;;;16.98;6.72;;;;;;;;;;5110999;27;20366;-71
2021/09/17 06:58:19;;;;;;;15.93;6.43;;;;;;;;;;5133049;27;20027;-72
2021/09/17 07:00:45;;;;;;;14.75;6.88;;;;;;;;;;5055599;27;20033;-72
2021/09/17 07:03:11;;;;;;;21.67;7.65;;;;;;;;;;5054821;27;20440;-72
2021/09/17 07:05:37;;;;;;;13.93;7.28;;;;;;;;;;5086343;27;20033;-72
2021/09/17 07:08:05;;;;;;;18.67;8.18;;;;;;;;;;5049322;27;20032;-72
2021/09/17 07:10:31;;;;;;;19.17;8.25;;;;;;;;;;5037626;27;20031;-71
2021/09/17 07:12:57;;;;;;;18.30;9.02;;;;;;;;;;5066751;27;20017;-71
2021/09/17 07:15:23;;;;;;;19.67;9.00;;;;;;;;;;5079474;28;20030;-72
2021/09/17 07:17:50;;;;;;;21.40;9.40;;;;;;;;;;5078131;28;20070;-72
2021/09/17 07:20:16;;;;;;;16.05;9.05;;;;;;;;;;5083634;27;20502;-75
2021/09/17 07:22:42;;;;;;;18.65;8.20;;;;;;;;;;5138081;27;20347;-70
2021/09/17 07:25:08;;;;;;;22.58;9.68;;;;;;;;;;5137604;27;20030;-72
2021/09/17 07:27:34;;;;;;;15.88;9.25;;;;;;;;;;5078069;27;20041;-73
2021/09/17 07:30:00;;;;;;;21.30;10.48;;;;;;;;;;5137904;27;20031;-74
2021/09/17 07:32:26;;;;;;;26.58;11.32;;;;;;;;;;5137715;27;20072;-71
2021/09/17 07:34:53;;;;;;;22.75;11.95;;;;;;;;;;5048198;27;20022;-73
2021/09/17 07:37:20;;;;;;;21.25;11.80;;;;;;;;;;5032979;28;20452;-71
2021/09/17 07:39:46;;;;;;;24.92;13.73;;;;;;;;;;5033149;28;20022;-73
2021/09/17 07:42:12;;;;;;;25.63;13.85;;;;;;;;;;5033387;28;20031;-73
2021/09/17 07:44:38;;;;;;;28.65;14.38;;;;;;;;;;5032984;28;20025;-74
2021/09/17 07:47:04;;;;;;;29.15;15.43;;;;;;;;;;5101417;28;20029;-74
2021/09/17 07:49:31;;;;;;;31.00;15.48;;;;;;;;;;5101483;28;20033;-74
2021/09/17 07:51:57;;;;;;;33.35;15.82;;;;;;;;;;5116715;27;20031;-72
2021/09/17 07:54:24;;;;;;;33.67;17.42;;;;;;;;;;5092281;27;20028;-75
2021/09/17 07:56:50;;;;;;;34.83;17.45;;;;;;;;;;5137094;27;20051;-74
2021/09/17 07:59:16;;;;;;;34.22;17.65;;;;;;;;;;5057123;27;20100;-73
2021/09/17 08:01:42;;;;;;;41.53;18.40;;;;;;;;;;5086240;27;20811;-72
2021/09/17 08:04:08;;;;;;;44.45;20.65;;;;;;;;;;5090530;27;20523;-73
2021/09/17 08:06:34;;;;;;;44.95;21.05;;;;;;;;;;5111060;27;20053;-72
2021/09/17 08:09:00;;;;;;;41.80;20.48;;;;;;;;;;5118495;27;20042;-72
2021/09/17 08:11:26;;;;;;;50.20;23.23;;;;;;;;;;5040383;27;20377;-74
2021/09/17 08:13:52;;;;;;;40.17;21.08;;;;;;;;;;5055972;27;20036;-72
2021/09/17 08:16:18;;;;;;;42.80;22.60;;;;;;;;;;5118191;27;20023;-73
2021/09/17 08:18:45;;;;;;;46.30;21.90;;;;;;;;;;5096803;28;20046;-70
2021/09/17 08:21:12;;;;;;;45.47;23.83;;;;;;;;;;5056362;27;20029;-70
2021/09/17 08:23:38;;;;;;;45.70;23.38;;;;;;;;;;5032072;28;20022;-69
2021/09/17 08:26:04;;;;;;;47.25;24.85;;;;;;;;;;5119604;27;20077;-65
2021/09/17 08:28:30;;;;;;;46.63;22.95;;;;;;;;;;5041209;27;20457;-66
2021/09/17 08:30:57;;;;;;;45.83;25.92;;;;;;;;;;5031846;28;20033;-65
2021/09/17 08:33:23;;;;;;;48.00;29.42;;;;;;;;;;5031070;28;20026;-66
2021/09/17 08:35:49;;;;;;;41.80;24.48;;;;;;;;;;5031490;28;20029;-71
2021/09/17 08:38:15;;;;;;;39.38;22.73;;;;;;;;;;5097245;27;20059;-71
2021/09/17 08:40:42;;;;;;;39.50;22.30;;;;;;;;;;5049119;27;20081;-70
2021/09/17 08:43:08;;;;;;;39.15;22.67;;;;;;;;;;5012914;28;20022;-70
2021/09/17 08:45:35;;;;;;;44.03;22.63;;;;;;;;;;5017379;28;20400;-70
2021/09/17 08:48:01;;;;;;;42.20;23.70;;;;;;;;;;5021282;28;20063;-71
2021/09/17 08:50:28;;;;;;;45.45;24.88;;;;;;;;;;5012308;28;20022;-70
2021/09/17 08:52:54;;;;;;;41.10;22.83;;;;;;;;;;5012309;28;20034;-70
2021/09/17 08:55:20;;;;;;;48.47;24.02;;;;;;;;;;5012052;28;20358;-70
2021/09/17 08:57:46;;;;;;;39.70;23.55;;;;;;;;;;5011799;28;20037;-70
2021/09/17 09:00:29;;;;;;;54.33;25.25;;;;;;;;;;5049858;27;20130;-71
2021/09/17 09:02:56;;;;;;;;;;;;;;;;;;5031750;28;20021;-71
2021/09/17 09:05:29;;;;;;;45.13;25.33;;;;;;;;;;5012569;28;20349;-70
2021/09/17 09:07:55;;;;;;;41.45;23.63;;;;;;;;;;5011966;28;20075;-70
2021/09/17 09:10:21;;;;;;;41.88;23.67;;;;;;;;;;5011781;28;20454;-70
2021/09/17 09:12:51;;;;;;;43.45;22.73;;;;;;;;;;5013916;28;20029;-70
2021/09/17 09:15:24;;;;;;;41.30;24.08;;;;;;;;;;5087658;27;20022;-70
2021/09/17 09:17:51;;;;;;;40.55;22.75;;;;;;;;;;5044612;28;20396;-71
2021/09/17 09:20:31;;;;;;;39.65;23.73;;;;;;;;;;5027466;27;20037;-71
2021/09/17 09:23:02;;;;;;;39.33;23.08;;;;;;;;;;5050502;27;20113;-70
2021/09/17 09:25:28;;;;;;;43.63;24.42;;;;;;;;;;5051928;27;20085;-71
2021/09/17 09:28:09;;;;;;;40.22;23.42;;;;;;;;;;5084457;27;20025;-69
2021/09/17 09:30:35;;;;;;;39.55;22.33;;;;;;;;;;5052342;27;20038;-71
2021/09/17 09:33:20;;;;;;;38.40;22.17;;;;;;;;;;5073098;27;20028;-70
2021/09/17 09:35:46;;;;;;;42.25;21.98;;;;;;;;;;5091132;28;20170;-71
2021/09/17 09:38:12;;;;;;;35.00;21.38;;;;;;;;;;5081430;27;20038;-74
2021/09/17 09:40:38;;;;;;;34.22;20.27;;;;;;;;;;5030776;28;20108;-71
2021/09/17 09:43:04;;;;;;;36.45;21.58;;;;;;;;;;5106271;27;20500;-70
2021/09/17 09:45:32;;;;;;;31.15;19.23;;;;;;;;;;5110821;27;20020;-71
2021/09/17 09:47:58;;;;;;;32.53;20.83;;;;;;;;;;5085817;27;20457;-71
2021/09/17 09:50:27;;;;;;;32.83;20.17;;;;;;;;;;5044852;27;20021;-71
2021/09/17 09:53:03;;;;;;;29.30;18.83;;;;;;;;;;5056904;27;20060;-72
2021/09/17 09:55:30;;;;;;;25.83;17.73;;;;;;;;;;5094232;27;20021;-70
2021/09/17 09:57:56;;;;;;;28.42;18.33;;;;;;;;;;5078649;27;20026;-72
2021/09/17 10:00:23;;;;;;;26.55;17.17;;;;;;;;;;5030569;28;20079;-71
2021/09/17 10:02:49;;;;;;;29.80;17.42;;;;;;;;;;5030937;28;20017;-71
2021/09/17 10:05:18;;;;;;;30.95;17.13;;;;;;;;;;5030715;28;20029;-71
2021/09/17 10:07:44;;;;;;;25.73;15.60;;;;;;;;;;5030721;28;20029;-74
2021/09/17 10:10:11;;;;;;;25.50;16.17;;;;;;;;;;5098610;28;20028;-71
2021/09/17 10:12:38;;;;;;;27.10;15.40;;;;;;;;;;5102070;27;20439;-71
2021/09/17 10:15:04;;;;;;;20.73;14.80;;;;;;;;;;5098291;28;20025;-72
2021/09/17 10:17:31;;;;;;;21.63;13.43;;;;;;;;;;5058805;27;20086;-71
2021/09/17 10:19:58;;;;;;;19.58;13.48;;;;;;;;;;5096232;27;20042;-71
2021/09/17 10:22:30;;;;;;;18.42;12.75;;;;;;;;;;5072741;27;20045;-70
2021/09/17 10:25:24;;;;;;;19.08;12.48;;;;;;;;;;5073150;27;20478;-70
2021/09/17 10:28:04;;;;;;;22.25;11.73;;;;;;;;;;5092796;28;20178;-71
2021/09/17 10:30:35;;;;;;;19.23;10.80;;;;;;;;;;5115463;27;20490;-72
2021/09/17 10:33:02;;;;;;;17.10;11.20;;;;;;;;;;5080069;28;20449;-71
2021/09/17 10:35:45;;;;;;;16.52;10.77;;;;;;;;;;5071815;27;20361;-72
2021/09/17 10:38:15;;;;;;;;;;;;;;;;;;5096117;28;20030;-72
2021/09/17 10:40:42;;;;;;;14.23;10.20;;;;;;;;;;5029911;28;19909;-71
2021/09/17 10:43:11;;;;;;;14.50;9.68;;;;;;;;;;5030318;28;20026;-71
2021/09/17 10:45:38;;;;;;;16.35;9.50;;;;;;;;;;5029926;28;20476;-71
2021/09/17 10:48:04;;;;;;;13.70;9.30;;;;;;;;;;5030124;28;20029;-70
2021/09/17 10:50:41;;;;;;;17.55;9.18;;;;;;;;;;5030136;28;20049;-70
2021/09/17 10:53:07;;;;;;;13.30;8.30;;;;;;;;;;5029837;28;20354;-73
2021/09/17 10:55:56;;;;;;;13.38;8.02;;;;;;;;;;5029953;28;20101;-71
2021/09/17 10:58:24;;;;;;;11.52;7.97;;;;;;;;;;5032895;28;20102;-73
2021/09/17 11:01:01;;;;;;;11.77;7.28;;;;;;;;;;5097823;28;20078;-73
2021/09/17 11:03:50;;;;;;;9.55;7.07;;;;;;;;;;5030131;28;20029;-73
2021/09/17 11:06:29;;;;;;;9.15;6.60;;;;;;;;;;5032379;28;20037;-71
2021/09/17 11:09:03;;;;;;;10.80;6.55;;;;;;;;;;5023087;28;20489;-71
2021/09/17 11:11:46;;;;;;;9.10;6.40;;;;;;;;;;5010128;28;20034;-71
2021/09/17 11:14:12;;;;;;;9.18;5.40;;;;;;;;;;5107611;28;20019;-71
2021/09/17 11:16:38;;;;;;;8.73;5.45;;;;;;;;;;5084504;28;20031;-72
2021/09/17 11:19:06;;;;;;;10.25;5.47;;;;;;;;;;5115276;28;20038;-70
2021/09/17 11:21:36;;;;;;;9.80;5.00;;;;;;;;;;5133527;28;20037;-71
2021/09/17 11:24:02;;;;;;;8.60;4.50;;;;;;;;;;5133755;28;20523;-73
2021/09/17 11:26:30;;;;;;;4.97;4.00;;;;;;;;;;5097577;28;20037;-72
2021/09/17 11:29:00;;;;;;;7.38;3.65;;;;;;;;;;5116476;27;20037;-72
2021/09/17 11:31:29;;;;;;;9.98;4.25;;;;;;;;;;5107130;28;20023;-73
2021/09/17 11:33:56;;;;;;;6.22;3.95;;;;;;;;;;5115278;27;20023;-71
2021/09/17 11:36:36;;;;;;;5.30;3.58;;;;;;;;;;5108374;27;20742;-70
2021/09/17 11:39:20;;;;;;;4.65;3.70;;;;;;;;;;5060265;27;20025;-71
2021/09/17 11:41:51;;;;;;;5.88;3.30;;;;;;;;;;5118416;27;20035;-75
2021/09/17 11:44:35;;;;;;;8.10;3.20;;;;;;;;;;5110792;27;20377;-72
2021/09/17 11:47:02;;;;;;;5.78;2.78;;;;;;;;;;5118647;27;20041;-68
2021/09/17 11:49:29;;;;;;;6.10;2.85;;;;;;;;;;5137086;27;20053;-70
2021/09/17 11:52:01;;;;;;;4.20;3.00;;;;;;;;;;5118666;27;20389;-70
2021/09/17 11:54:28;;;;;;;5.50;2.70;;;;;;;;;;5137183;27;20031;-70
2021/09/17 11:57:05;;;;;;;4.28;2.83;;;;;;;;;;5118492;27;20027;-71
2021/09/17 11:59:34;;;;;;;3.90;2.42;;;;;;;;;;5137065;27;20066;-70
2021/09/17 12:02:14;;;;;;;4.55;2.75;;;;;;;;;;5118324;27;20027;-71
2021/09/17 12:04:45;;;;;;;4.72;2.97;;;;;;;;;;5137015;27;20019;-70
2021/09/17 12:07:11;;;;;;;4.40;2.55;;;;;;;;;;5118353;27;20118;-72
2021/09/17 12:09:37;;;;;;;4.20;2.42;;;;;;;;;;5136626;27;20044;-73
2021/09/17 12:12:04;;;;;;;6.60;2.67;;;;;;;;;;5118425;27;20029;-71
2021/09/17 12:14:30;;;;;;;5.18;2.50;;;;;;;;;;5079941;27;20105;-72
2021/09/17 12:17:06;;;;;;;2.30;1.88;;;;;;;;;;5012290;28;20034;-71
2021/09/17 12:19:52;;;;;;;3.58;2.22;;;;;;;;;;5097237;28;20053;-70
2021/09/17 12:22:26;;;;;;;2.63;2.20;;;;;;;;;;5012250;28;20040;-70
2021/09/17 12:25:00;;;;;;;3.63;2.00;;;;;;;;;;5012606;28;20029;-72
2021/09/17 12:27:30;;;;;;;4.78;2.17;;;;;;;;;;5012434;28;20040;-71
2021/09/17 12:29:57;;;;;;;3.17;2.20;;;;;;;;;;5097536;28;20022;-72
2021/09/17 12:32:23;;;;;;;5.20;2.30;;;;;;;;;;5012453;28;20029;-71
2021/09/17 12:35:03;;;;;;;5.05;2.05;;;;;;;;;;5097379;28;20070;-72
2021/09/17 12:37:29;;;;;;;2.92;1.88;;;;;;;;;;5097122;28;20026;-70
2021/09/17 12:40:07;;;;;;;4.15;2.10;;;;;;;;;;5012021;28;20034;-71
2021/09/17 12:42:33;;;;;;;5.43;2.22;;;;;;;;;;5012154;28;20470;-70
2021/09/17 12:45:01;;;;;;;4.00;1.85;;;;;;;;;;5012096;28;20461;-70
2021/09/17 12:47:28;;;;;;;3.38;2.10;;;;;;;;;;5011162;28;20504;-71
2021/09/17 12:50:23;;;;;;;2.65;2.10;;;;;;;;;;5011956;28;20022;-70
2021/09/17 12:52:49;;;;;;;2.10;1.75;;;;;;;;;;5016013;28;20041;-71
2021/09/17 12:55:28;;;;;;;2.05;1.85;;;;;;;;;;5080095;28;20026;-74
2021/09/17 12:57:58;;;;;;;3.58;1.63;;;;;;;;;;5011974;28;20033;-71
2021/09/17 13:00:24;;;;;;;8.90;1.98;;;;;;;;;;5079671;28;20109;-70
2021/09/17 13:02:52;;;;;;;2.75;1.65;;;;;;;;;;5011635;28;20163;-71
2021/09/17 13:05:18;;;;;;;5.93;1.80;;;;;;;;;;5011638;28;20453;-73
2021/09/17 13:07:44;;;;;;;3.97;1.75;;;;;;;;;;5011630;28;20050;-71
2021/09/17 13:10:10;;;;;;;4.53;1.80;;;;;;;;;;5011891;28;20388;-70
2021/09/17 13:12:39;;;;;;;3.50;1.70;;;;;;;;;;5079343;28;20033;-70
2021/09/17 13:15:05;;;;;;;5.93;1.70;;;;;;;;;;5011625;28;20022;-72
2021/09/17 13:17:31;;;;;;;3.10;1.63;;;;;;;;;;5081943;27;20027;-70
2021/09/17 13:19:58;;;;;;;3.20;1.65;;;;;;;;;;5135394;27;20040;-72
2021/09/17 13:22:24;;;;;;;4.03;1.60;;;;;;;;;;5135445;27;20039;-73
2021/09/17 13:24:50;;;;;;;5.43;1.55;;;;;;;;;;5135434;27;20377;-77
2021/09/17 13:27:16;;;;;;;1.58;1.35;;;;;;;;;;5116786;27;20397;-71
2021/09/17 13:29:42;;;;;;;3.17;1.75;;;;;;;;;;5110559;27;20026;-72
2021/09/17 13:32:08;;;;;;;2.50;1.65;;;;;;;;;;5070259;27;20034;-75
2021/09/17 13:34:34;;;;;;;3.10;1.50;;;;;;;;;;5060327;27;20011;-74
2021/09/17 13:37:01;;;;;;;2.35;1.55;;;;;;;;;;5117656;27;20019;-77
2021/09/17 13:39:27;;;;;;;3.38;1.60;;;;;;;;;;5094193;27;20027;-76
2021/09/17 13:41:53;;;;;;;4.53;1.60;;;;;;;;;;5088458;27;20112;-70
2021/09/17 13:44:19;;;;;;;1.33;1.23;;;;;;;;;;5031202;28;20464;-72
2021/09/17 13:46:46;;;;;;;2.45;1.40;;;;;;;;;;5067165;27;20087;-76
2021/09/17 13:49:12;;;;;;;4.10;1.45;;;;;;;;;;5042542;27;20049;-76
2021/09/17 13:51:38;;;;;;;4.65;1.52;;;;;;;;;;5094914;28;20380;-75
2021/09/17 13:54:04;;;;;;;2.60;1.67;;;;;;;;;;5095886;28;20021;-71
2021/09/17 13:56:30;;;;;;;1.67;1.50;;;;;;;;;;5090919;27;20027;-70
2021/09/17 13:58:56;;;;;;;2.97;1.70;;;;;;;;;;5065422;27;20026;-71
2021/09/17 14:01:22;;;;;;;4.43;1.50;;;;;;;;;;5093495;27;20104;-70
2021/09/17 14:03:48;;;;;;;3.33;1.65;;;;;;;;;;5087423;27;20027;-74
2021/09/17 14:06:17;;;;;;;2.97;1.60;;;;;;;;;;5094566;28;20034;-75
2021/09/17 14:08:43;;;;;;;3.88;1.90;;;;;;;;;;5011173;28;20033;-75
2021/09/17 14:11:09;;;;;;;4.43;1.45;;;;;;;;;;5027330;27;20051;-74
2021/09/17 14:13:36;;;;;;;1.60;1.50;;;;;;;;;;5115860;27;20030;-76
2021/09/17 14:16:03;;;;;;;4.95;1.80;;;;;;;;;;5084564;27;20067;-77
2021/09/17 14:18:29;;;;;;;1.90;1.55;;;;;;;;;;5030623;28;20025;-74
2021/09/17 14:20:55;;;;;;;8.15;2.00;;;;;;;;;;5030391;28;20089;-76
2021/09/17 14:23:21;;;;;;;4.93;1.75;;;;;;;;;;5086518;27;20458;-75
2021/09/17 14:25:47;;;;;;;4.57;1.60;;;;;;;;;;5106544;27;20123;-76
2021/09/17 14:28:13;;;;;;;2.90;1.70;;;;;;;;;;5087610;27;20464;-77
2021/09/17 14:30:39;;;;;;;4.47;1.83;;;;;;;;;;5115800;27;20025;-78
2021/09/17 14:33:05;;;;;;;4.82;1.67;;;;;;;;;;5044470;28;20514;-78
2021/09/17 14:35:31;;;;;;;3.85;1.65;;;;;;;;;;5057913;27;20011;-78